createdAt,value
2023-06-27T00:02:15.161Z,47.40
2023-06-27T00:04:43.255Z,47.17
2023-06-27T00:07:12.916Z,47.06
2023-06-27T00:09:41.280Z,47.21
2023-06-27T00:12:09.913Z,47.14
2023-06-27T00:14:39.637Z,47.44
2023-06-27T00:17:09.908Z,47.80
2023-06-27T00:19:37.855Z,48.10
2023-06-27T00:22:11.611Z,48.33
2023-06-27T00:24:39.976Z,48.79
2023-06-27T00:27:08.230Z,48.73
2023-06-27T00:29:36.286Z,48.71
2023-06-27T00:32:04.551Z,48.70
2023-06-27T00:34:32.538Z,49.23
2023-06-27T00:37:00.593Z,49.21
2023-06-27T00:39:28.647Z,49.18
2023-06-27T00:41:56.648Z,49.31
2023-06-27T00:44:24.649Z,49.09
2023-06-27T00:46:53.323Z,48.90
2023-06-27T00:49:21.367Z,48.86
2023-06-27T00:51:49.477Z,48.73
2023-06-27T00:54:18.338Z,49.02
2023-06-27T00:56:46.627Z,48.97
2023-06-27T00:59:14.634Z,48.57
2023-06-27T01:01:42.657Z,48.45
2023-06-27T01:04:10.644Z,48.76
2023-06-27T01:06:47.849Z,48.75
2023-06-27T01:09:21.119Z,48.66
2023-06-27T01:11:52.126Z,48.19
2023-06-27T01:14:20.611Z,48.66
2023-06-27T01:16:49.063Z,48.50
2023-06-27T01:19:17.107Z,48.48
2023-06-27T01:21:45.128Z,48.46
2023-06-27T01:24:13.539Z,48.60
2023-06-27T01:26:41.511Z,48.56
2023-06-27T01:29:09.580Z,48.49
2023-06-27T01:31:44.058Z,48.31
2023-06-27T01:34:18.954Z,48.22
2023-06-27T01:36:56.366Z,48.67
2023-06-27T01:39:26.130Z,49.40
2023-06-27T01:41:56.283Z,49.12
2023-06-27T01:44:24.491Z,49.03
2023-06-27T01:46:52.467Z,49.05
2023-06-27T01:49:20.675Z,49.15
2023-06-27T01:51:49.119Z,49.18
2023-06-27T01:54:17.241Z,49.32
2023-06-27T01:56:45.311Z,49.45
2023-06-27T01:59:13.324Z,49.64
2023-06-27T02:01:41.457Z,49.29
2023-06-27T02:04:09.569Z,49.09
2023-06-27T02:06:37.675Z,48.86
2023-06-27T02:09:06.663Z,48.90
2023-06-27T02:11:34.663Z,49.12
2023-06-27T02:14:02.790Z,49.39
2023-06-27T02:16:30.785Z,49.53
2023-06-27T02:18:58.806Z,49.56
2023-06-27T02:21:26.763Z,49.64
2023-06-27T02:23:54.752Z,49.47
2023-06-27T02:26:22.751Z,49.89
2023-06-27T02:28:50.757Z,50.10
2023-06-27T02:31:18.822Z,50.26
2023-06-27T02:33:46.904Z,50.17
2023-06-27T02:36:15.380Z,50.53
2023-06-27T02:38:43.411Z,51.21
2023-06-27T02:41:11.511Z,51.28
2023-06-27T02:43:40.292Z,51.86
2023-06-27T02:46:08.356Z,52.00
2023-06-27T02:48:36.335Z,52.34
2023-06-27T02:51:04.294Z,52.39
2023-06-27T02:53:32.307Z,52.47
2023-06-27T02:56:04.796Z,52.55
2023-06-27T02:58:33.011Z,52.53
2023-06-27T03:01:09.929Z,52.44
2023-06-27T03:03:38.238Z,52.06
2023-06-27T03:06:11.163Z,52.00
2023-06-27T03:08:41.949Z,51.87
2023-06-27T03:11:09.975Z,51.70
2023-06-27T03:13:38.012Z,51.73
2023-06-27T03:16:06.222Z,52.21
2023-06-27T03:18:34.311Z,52.31
2023-06-27T03:21:02.328Z,52.15
2023-06-27T03:23:30.332Z,52.56
2023-06-27T03:25:58.396Z,52.73
2023-06-27T03:28:26.505Z,52.64
2023-06-27T03:30:54.640Z,53.27
2023-06-27T03:33:22.700Z,53.18
2023-06-27T03:35:50.747Z,53.13
2023-06-27T03:38:18.849Z,53.32
2023-06-27T03:40:46.873Z,53.49
2023-06-27T03:43:15.614Z,53.48
2023-06-27T03:45:43.999Z,53.90
2023-06-27T03:48:11.980Z,54.28
2023-06-27T03:50:40.109Z,54.17
2023-06-27T03:53:08.114Z,53.88
2023-06-27T03:55:36.061Z,54.20
2023-06-27T03:58:04.206Z,53.82
2023-06-27T04:00:32.319Z,53.59
2023-06-27T04:03:00.477Z,53.33
2023-06-27T04:05:28.555Z,52.93
2023-06-27T04:07:56.709Z,53.05
2023-06-27T04:10:24.709Z,53.05
2023-06-27T04:12:52.766Z,53.18
2023-06-27T04:15:20.725Z,53.20
2023-06-27T04:17:48.938Z,53.25
2023-06-27T04:20:16.996Z,53.33
2023-06-27T04:22:44.959Z,53.57
2023-06-27T04:25:13.730Z,53.90
2023-06-27T04:27:41.811Z,53.95
2023-06-27T04:30:10.325Z,54.21
2023-06-27T04:32:39.843Z,54.53
2023-06-27T04:35:09.237Z,54.33
2023-06-27T04:37:39.539Z,54.58
2023-06-27T04:40:08.644Z,55.00
2023-06-27T04:42:36.604Z,55.09
2023-06-27T04:45:04.735Z,55.52
2023-06-27T04:47:32.870Z,55.47
2023-06-27T04:50:01.246Z,55.84
2023-06-27T04:52:29.258Z,55.48
2023-06-27T04:54:57.369Z,55.51
2023-06-27T04:57:25.463Z,56.24
2023-06-27T04:59:53.514Z,56.12
2023-06-27T05:02:21.617Z,56.19
2023-06-27T05:04:51.925Z,56.34
2023-06-27T05:07:20.137Z,56.88
2023-06-27T05:09:48.203Z,56.63
2023-06-27T05:12:16.272Z,56.46
2023-06-27T05:14:44.274Z,56.14
2023-06-27T05:17:12.287Z,56.08
2023-06-27T05:19:40.330Z,55.90
2023-06-27T05:22:08.457Z,55.14
2023-06-27T05:24:36.523Z,55.06
2023-06-27T05:27:05.662Z,54.83
2023-06-27T05:29:33.774Z,54.89
2023-06-27T05:32:01.890Z,54.83
2023-06-27T05:34:29.899Z,55.38
2023-06-27T05:36:57.913Z,55.94
2023-06-27T05:39:25.889Z,55.85
2023-06-27T05:41:53.850Z,56.25
2023-06-27T05:44:22.022Z,56.42
2023-06-27T05:46:51.534Z,56.86
2023-06-27T05:49:19.629Z,56.41
2023-06-27T05:51:47.711Z,56.11
2023-06-27T05:54:15.724Z,56.40
2023-06-27T05:56:43.705Z,56.96
2023-06-27T05:59:11.759Z,56.90
2023-06-27T06:01:40.043Z,56.99
2023-06-27T06:04:08.178Z,56.43
2023-06-27T06:06:38.208Z,56.96
2023-06-27T06:09:09.264Z,57.18
2023-06-27T06:11:37.288Z,57.39
2023-06-27T06:14:05.836Z,57.09
2023-06-27T06:16:35.495Z,56.38
2023-06-27T06:19:03.563Z,55.89
2023-06-27T06:21:32.664Z,55.80
2023-06-27T06:24:01.027Z,55.88
2023-06-27T06:26:29.121Z,55.90
2023-06-27T06:28:57.203Z,56.54
2023-06-27T06:31:26.995Z,56.90
2023-06-27T06:33:55.895Z,57.40
2023-06-27T06:36:24.153Z,57.83
2023-06-27T06:38:52.219Z,57.86
2023-06-27T06:41:23.247Z,57.63
2023-06-27T06:43:51.329Z,58.18
2023-06-27T06:46:19.784Z,58.04
2023-06-27T06:48:47.850Z,58.05
2023-06-27T06:53:41.158Z,58.08
2023-06-27T06:56:09.267Z,58.54
2023-06-27T06:58:37.278Z,58.21
2023-06-27T07:01:06.657Z,57.64
2023-06-27T07:03:36.068Z,57.02
2023-06-27T07:06:04.057Z,56.31
2023-06-27T07:08:32.275Z,55.92
2023-06-27T07:11:00.312Z,55.27
2023-06-27T07:13:28.337Z,55.81
2023-06-27T07:15:56.267Z,55.46
2023-06-27T07:18:24.388Z,55.32
2023-06-27T07:20:52.464Z,56.01
2023-06-27T07:23:20.507Z,55.38
2023-06-27T07:25:48.594Z,54.68
2023-06-27T07:28:16.607Z,54.81
2023-06-27T07:30:48.104Z,55.05
2023-06-27T07:33:18.110Z,54.90
2023-06-27T07:35:47.557Z,54.80
2023-06-27T07:38:18.561Z,54.43
2023-06-27T07:40:46.848Z,53.81
2023-06-27T07:43:14.913Z,54.36
2023-06-27T07:45:43.161Z,54.22
2023-06-27T07:48:11.335Z,53.38
2023-06-27T07:50:39.586Z,53.45
2023-06-27T07:53:07.940Z,53.65
2023-06-27T07:55:36.811Z,53.43
2023-06-27T07:58:05.394Z,53.86
2023-06-27T08:00:33.550Z,53.50
2023-06-27T08:03:01.897Z,53.21
2023-06-27T08:05:33.282Z,53.53
2023-06-27T08:08:02.003Z,53.49
2023-06-27T08:10:30.773Z,52.57
2023-06-27T08:12:58.729Z,52.43
2023-06-27T08:15:26.760Z,52.15
2023-06-27T08:17:54.938Z,52.24
2023-06-27T08:20:23.297Z,51.86
2023-06-27T08:22:51.396Z,51.17
2023-06-27T08:25:19.557Z,50.85
2023-06-27T08:27:47.624Z,50.57
2023-06-27T08:30:15.768Z,49.74
2023-06-27T08:32:43.820Z,49.33
2023-06-27T08:35:11.845Z,49.19
2023-06-27T08:37:39.949Z,48.61
2023-06-27T08:40:08.488Z,47.82
2023-06-27T08:42:36.602Z,47.16
2023-06-27T08:45:04.842Z,48.10
2023-06-27T08:47:33.046Z,47.52
2023-06-27T08:50:08.097Z,47.77
2023-06-27T08:52:40.796Z,47.18
2023-06-27T08:55:09.870Z,47.78
2023-06-27T08:57:37.975Z,48.06
2023-06-27T09:00:14.563Z,47.15
2023-06-27T09:02:43.409Z,47.16
2023-06-27T09:05:11.772Z,46.94
2023-06-27T09:07:39.949Z,46.89
2023-06-27T09:10:08.844Z,47.26
2023-06-27T09:12:36.844Z,47.68
2023-06-27T09:15:05.562Z,47.26
2023-06-27T09:17:33.576Z,46.62
2023-06-27T09:20:01.646Z,46.84
2023-06-27T09:22:29.835Z,46.82
2023-06-27T09:25:17.339Z,45.98
2023-06-27T09:27:47.373Z,42.79
2023-06-27T09:30:17.320Z,43.75
2023-06-27T09:32:55.260Z,43.07
2023-06-27T09:35:46.007Z,42.81
2023-06-27T09:40:43.289Z,42.65
2023-06-27T09:43:11.864Z,42.81
2023-06-27T09:45:40.334Z,41.95
2023-06-27T09:48:11.106Z,42.46
2023-06-27T09:50:40.205Z,42.58
2023-06-27T09:53:08.356Z,41.24
2023-06-27T09:55:36.423Z,41.55
2023-06-27T09:58:04.404Z,42.23
2023-06-27T10:00:32.470Z,41.25
2023-06-27T10:03:00.513Z,41.31
2023-06-27T10:08:16.994Z,40.93
2023-06-27T10:10:45.021Z,40.67
2023-06-27T10:13:13.075Z,41.04
2023-06-27T10:15:41.405Z,40.99
2023-06-27T10:18:09.690Z,41.00
2023-06-27T10:20:37.640Z,41.16
2023-06-27T10:23:05.701Z,40.97
2023-06-27T10:25:33.778Z,41.13
2023-06-27T10:28:11.348Z,41.09
2023-06-27T10:30:46.661Z,39.74
2023-06-27T10:33:30.357Z,41.97
2023-06-27T10:36:07.392Z,40.45
2023-06-27T10:38:39.401Z,39.84
2023-06-27T10:41:12.303Z,40.94
2023-06-27T10:43:49.612Z,40.93
2023-06-27T10:46:28.988Z,40.55
2023-06-27T10:49:07.463Z,40.44
2023-06-27T10:51:39.091Z,39.46
2023-06-27T10:54:17.392Z,40.07
2023-06-27T10:56:46.822Z,40.31
2023-06-27T10:59:22.187Z,40.31
2023-06-27T11:02:04.828Z,39.75
2023-06-27T11:04:44.535Z,39.14
2023-06-27T11:07:19.862Z,39.95
2023-06-27T11:09:57.468Z,39.13
2023-06-27T11:12:25.497Z,39.27
2023-06-27T11:14:56.484Z,39.70
2023-06-27T11:17:25.275Z,39.62
2023-06-27T11:19:53.440Z,39.38
2023-06-27T11:22:21.472Z,39.34
2023-06-27T11:24:49.436Z,38.61
2023-06-27T11:27:17.738Z,38.40
2023-06-27T11:29:45.758Z,38.38
2023-06-27T11:32:13.814Z,37.82
2023-06-27T11:34:45.146Z,38.12
2023-06-27T11:37:13.463Z,38.39
2023-06-27T11:39:41.477Z,38.06
2023-06-27T11:42:09.521Z,37.67
2023-06-27T11:44:37.530Z,37.52
2023-06-27T11:47:07.041Z,37.52
2023-06-27T11:49:37.499Z,37.02
2023-06-27T11:52:05.747Z,37.36
2023-06-27T11:54:33.887Z,36.82
2023-06-27T11:57:03.207Z,37.52
2023-06-27T11:59:34.871Z,37.26
2023-06-27T12:02:03.986Z,37.46
2023-06-27T12:04:32.035Z,37.42
2023-06-27T12:07:17.808Z,37.60
2023-06-27T12:09:45.950Z,36.37
2023-06-27T12:12:15.467Z,37.01
2023-06-27T12:14:44.674Z,37.34
2023-06-27T12:17:25.084Z,37.13
2023-06-27T12:19:53.167Z,37.07
2023-06-27T12:22:21.216Z,37.45
2023-06-27T12:24:49.306Z,37.36
2023-06-27T12:27:17.770Z,37.37
2023-06-27T12:29:45.731Z,36.86
2023-06-27T12:32:13.893Z,36.72
2023-06-27T12:34:41.919Z,36.20
2023-06-27T12:37:10.370Z,35.87
2023-06-27T12:39:38.393Z,35.43
2023-06-27T12:42:06.527Z,35.98
2023-06-27T12:44:34.510Z,35.85
2023-06-27T12:47:02.487Z,35.19
2023-06-27T12:49:30.535Z,34.49
2023-06-27T12:51:58.610Z,34.81
2023-06-27T12:54:26.651Z,34.46
2023-06-27T12:56:54.691Z,34.18
2023-06-27T12:59:28.764Z,34.18
2023-06-27T13:02:00.554Z,34.71
2023-06-27T13:04:30.433Z,34.52
2023-06-27T13:07:02.453Z,33.80
2023-06-27T13:09:30.518Z,33.89
2023-06-27T13:11:58.673Z,33.58
2023-06-27T13:14:27.764Z,33.63
2023-06-27T13:16:55.797Z,33.77
2023-06-27T13:19:23.852Z,33.77
2023-06-27T13:21:54.100Z,33.27
2023-06-27T13:24:22.896Z,32.89
2023-06-27T13:26:50.952Z,32.63
2023-06-27T13:29:19.004Z,33.48
2023-06-27T13:31:46.980Z,33.25
2023-06-27T13:34:15.021Z,33.34
2023-06-27T13:36:43.017Z,33.21
2023-06-27T13:39:11.178Z,33.45
2023-06-27T13:41:39.206Z,33.49
2023-06-27T13:44:07.279Z,32.44
2023-06-27T13:46:35.272Z,32.61
2023-06-27T13:49:03.324Z,32.96
2023-06-27T13:51:31.358Z,32.85
2023-06-27T13:53:59.588Z,33.14
2023-06-27T13:56:27.745Z,33.12
2023-06-27T13:58:55.848Z,33.19
2023-06-27T14:01:24.272Z,33.54
2023-06-27T14:03:52.522Z,33.67
2023-06-27T14:06:21.285Z,33.31
2023-06-27T14:08:49.357Z,34.17
2023-06-27T14:11:17.634Z,34.21
2023-06-27T14:13:46.117Z,33.66
2023-06-27T14:16:14.276Z,33.50
2023-06-27T14:18:42.333Z,33.92
2023-06-27T14:21:11.676Z,33.87
2023-06-27T14:23:40.325Z,34.53
2023-06-27T14:26:09.110Z,34.59
2023-06-27T14:28:37.235Z,35.19
2023-06-27T14:31:08.153Z,35.07
2023-06-27T14:33:36.191Z,35.75
2023-06-27T14:36:05.174Z,36.09
2023-06-27T14:38:35.727Z,36.36
2023-06-27T14:41:03.754Z,36.35
2023-06-27T14:43:32.772Z,36.28
2023-06-27T14:46:00.846Z,36.68
2023-06-27T14:48:28.877Z,36.64
2023-06-27T14:50:56.939Z,36.89
2023-06-27T14:53:25.053Z,36.33
2023-06-27T14:55:53.381Z,36.89
2023-06-27T14:58:21.455Z,36.54
2023-06-27T15:00:49.529Z,36.48
2023-06-27T15:03:17.667Z,36.55
2023-06-27T15:05:45.858Z,37.06
2023-06-27T15:08:15.785Z,37.08
2023-06-27T15:10:47.744Z,36.56
2023-06-27T15:13:16.637Z,37.01
2023-06-27T15:15:44.695Z,36.22
2023-06-27T15:18:12.958Z,36.94
2023-06-27T15:20:41.383Z,37.23
2023-06-27T15:23:09.649Z,37.59
2023-06-27T15:25:37.681Z,37.46
2023-06-27T15:28:06.271Z,37.43
2023-06-27T15:30:35.156Z,37.89
2023-06-27T15:33:03.735Z,37.06
2023-06-27T15:35:31.685Z,36.39
2023-06-27T15:37:59.659Z,36.58
2023-06-27T15:40:27.696Z,37.16
2023-06-27T15:42:55.708Z,37.50
2023-06-27T15:45:23.842Z,37.62
2023-06-27T15:47:51.975Z,37.92
2023-06-27T15:50:20.116Z,38.04
2023-06-27T15:52:48.141Z,37.32
2023-06-27T15:55:16.996Z,36.87
2023-06-27T15:57:45.032Z,37.08
2023-06-27T16:00:13.754Z,37.52
2023-06-27T16:02:42.793Z,37.55
2023-06-27T16:05:11.328Z,37.84
2023-06-27T16:07:39.550Z,37.48
2023-06-27T16:10:08.036Z,37.43
2023-06-27T16:12:36.088Z,37.89
2023-06-27T16:15:04.558Z,38.21
2023-06-27T16:17:32.649Z,38.51
2023-06-27T16:20:00.828Z,39.06
2023-06-27T16:22:28.863Z,39.21
2023-06-27T16:24:57.021Z,39.45
2023-06-27T16:27:25.221Z,38.82
2023-06-27T16:29:53.433Z,38.47
2023-06-27T16:32:21.530Z,38.64
2023-06-27T16:34:49.591Z,39.41
2023-06-27T16:37:18.316Z,39.23
2023-06-27T16:39:46.469Z,38.29
2023-06-27T16:42:14.660Z,37.94
2023-06-27T16:44:42.917Z,37.92
2023-06-27T16:47:11.036Z,37.53
2023-06-27T16:49:39.011Z,37.68
2023-06-27T16:52:07.383Z,38.65
2023-06-27T16:54:35.426Z,39.75
2023-06-27T16:57:04.619Z,39.67
2023-06-27T16:59:32.688Z,38.71
2023-06-27T17:02:01.746Z,39.50
2023-06-27T17:04:30.026Z,40.27
2023-06-27T17:06:58.247Z,40.83
2023-06-27T17:09:26.582Z,40.38
2023-06-27T17:11:54.712Z,40.50
2023-06-27T17:14:22.720Z,40.56
2023-06-27T17:16:50.797Z,40.26
2023-06-27T17:19:18.801Z,40.27
2023-06-27T17:21:46.928Z,40.93
2023-06-27T17:24:14.992Z,40.20
2023-06-27T17:26:43.121Z,40.99
2023-06-27T17:29:11.247Z,41.38
2023-06-27T17:31:39.733Z,41.37
2023-06-27T17:34:08.664Z,41.79
2023-06-27T17:36:36.647Z,41.55
2023-06-27T17:39:04.730Z,40.93
2023-06-27T17:41:33.165Z,40.96
2023-06-27T17:44:01.359Z,41.15
2023-06-27T17:46:29.392Z,41.21
2023-06-27T17:48:57.472Z,41.42
2023-06-27T17:51:25.605Z,41.92
2023-06-27T17:53:53.660Z,41.96
2023-06-27T17:56:21.745Z,41.95
2023-06-27T17:58:49.743Z,42.40
2023-06-27T18:01:18.301Z,42.03
2023-06-27T18:03:46.292Z,41.85
2023-06-27T18:06:14.545Z,41.99
2023-06-27T18:08:42.606Z,42.61
2023-06-27T18:11:11.417Z,42.72
2023-06-27T18:13:39.362Z,43.09
2023-06-27T18:16:08.564Z,44.50
2023-06-27T18:18:36.588Z,44.49
2023-06-27T18:21:04.868Z,44.65
2023-06-27T18:23:32.975Z,45.19
2023-06-27T18:26:04.467Z,44.98
2023-06-27T18:28:33.618Z,44.93
2023-06-27T18:31:03.705Z,45.30
2023-06-27T18:33:32.123Z,45.62
2023-06-27T18:36:02.208Z,46.23
2023-06-27T18:38:30.229Z,45.50
2023-06-27T18:40:58.365Z,45.68
2023-06-27T18:43:26.438Z,44.97
2023-06-27T18:45:54.565Z,45.05
2023-06-27T18:48:22.754Z,45.72
2023-06-27T18:50:50.921Z,46.00
2023-06-27T18:53:19.022Z,46.23
2023-06-27T18:55:47.234Z,46.41
2023-06-27T18:58:15.365Z,46.03
2023-06-27T19:00:43.822Z,45.26
2023-06-27T19:03:12.205Z,45.27
2023-06-27T19:05:41.287Z,45.13
2023-06-27T19:08:11.418Z,45.93
2023-06-27T19:10:40.480Z,46.01
2023-06-27T19:13:13.907Z,45.13
2023-06-27T19:15:44.842Z,45.20
2023-06-27T19:18:12.914Z,44.31
2023-06-27T19:20:41.776Z,43.79
2023-06-27T19:23:10.649Z,44.21
2023-06-27T19:25:38.697Z,43.69
2023-06-27T19:28:07.669Z,43.64
2023-06-27T19:30:35.690Z,42.81
2023-06-27T19:33:03.714Z,42.94
2023-06-27T19:35:33.401Z,42.76
2023-06-27T19:38:01.467Z,42.76
2023-06-27T19:40:29.957Z,42.62
2023-06-27T19:42:58.625Z,43.93
2023-06-27T19:45:26.715Z,44.47
2023-06-27T19:47:54.782Z,44.42
2023-06-27T19:50:22.834Z,45.27
2023-06-27T19:52:50.898Z,45.09
2023-06-27T19:55:18.897Z,44.45
2023-06-27T19:57:46.920Z,44.94
2023-06-27T20:00:15.584Z,44.13
2023-06-27T20:02:43.722Z,43.95
2023-06-27T20:05:13.058Z,44.27
2023-06-27T20:07:41.096Z,44.97
2023-06-27T20:10:16.046Z,44.19
2023-06-27T20:12:44.724Z,44.19
2023-06-27T20:15:12.991Z,44.84
2023-06-27T20:17:41.025Z,44.20
2023-06-27T20:20:09.660Z,44.75
2023-06-27T20:22:37.771Z,44.67
2023-06-27T20:25:06.262Z,44.71
2023-06-27T20:27:34.273Z,44.86
2023-06-27T20:30:02.306Z,44.72
2023-06-27T20:32:30.467Z,44.80
2023-06-27T20:34:58.489Z,44.97
2023-06-27T20:37:26.564Z,45.33
2023-06-27T20:39:54.607Z,45.31
2023-06-27T20:42:22.668Z,45.46
2023-06-27T20:44:50.649Z,45.62
2023-06-27T20:47:19.393Z,45.87
2023-06-27T20:49:47.371Z,46.12
2023-06-27T20:52:15.483Z,45.87
2023-06-27T20:54:43.970Z,46.05
2023-06-27T20:57:11.936Z,45.86
2023-06-27T20:59:40.392Z,46.13
2023-06-27T21:02:08.477Z,46.15
2023-06-27T21:04:36.651Z,46.53
2023-06-27T21:07:04.784Z,46.88
2023-06-27T21:09:32.804Z,47.16
2023-06-27T21:12:00.760Z,47.37
2023-06-27T21:14:28.739Z,47.44
2023-06-27T21:16:59.501Z,47.93
2023-06-27T21:19:27.732Z,49.15
2023-06-27T21:21:55.919Z,48.65
2023-06-27T21:24:24.159Z,48.83
2023-06-27T21:26:52.150Z,49.43
2023-06-27T21:29:20.259Z,49.82
2023-06-27T21:31:48.248Z,49.93
2023-06-27T21:34:16.307Z,49.87
2023-06-27T21:36:44.347Z,50.00
2023-06-27T21:39:12.366Z,49.97
2023-06-27T21:41:40.354Z,49.91
2023-06-27T21:44:08.561Z,49.99
2023-06-27T21:46:37.068Z,50.27
2023-06-27T21:49:05.043Z,50.26
2023-06-27T21:51:33.056Z,49.87
2023-06-27T21:54:02.202Z,50.27
2023-06-27T21:56:30.218Z,50.15
2023-06-27T21:58:58.222Z,50.37
2023-06-27T22:01:27.474Z,50.56
2023-06-27T22:03:55.691Z,51.31
2023-06-27T22:06:34.294Z,51.29
2023-06-27T22:09:10.470Z,51.05
2023-06-27T22:11:38.576Z,51.16
2023-06-27T22:14:06.571Z,50.93
2023-06-27T22:16:34.587Z,50.89
2023-06-27T22:19:02.622Z,50.78
2023-06-27T22:21:30.659Z,51.46
2023-06-27T22:23:58.776Z,50.85
2023-06-27T22:26:26.790Z,50.56
2023-06-27T22:28:54.754Z,50.88
2023-06-27T22:31:26.354Z,51.39
2023-06-27T22:33:55.230Z,52.01
2023-06-27T22:36:23.271Z,51.63
2023-06-27T22:38:51.335Z,52.14
2023-06-27T22:41:19.305Z,51.73
2023-06-27T22:43:47.316Z,51.93
2023-06-27T22:46:15.709Z,52.13
2023-06-27T22:48:43.746Z,52.49
2023-06-27T22:51:11.767Z,53.97
2023-06-27T22:53:45.755Z,53.14
2023-06-27T22:56:13.774Z,53.15
2023-06-27T22:58:42.362Z,53.12
2023-06-27T23:01:10.575Z,53.79
2023-06-27T23:03:38.735Z,53.89
2023-06-27T23:06:06.807Z,53.90
2023-06-27T23:08:34.861Z,54.09
2023-06-27T23:11:02.869Z,54.17
2023-06-27T23:13:31.087Z,53.95
2023-06-27T23:15:59.161Z,53.84
2023-06-27T23:18:27.177Z,53.96
2023-06-27T23:20:55.171Z,54.08
2023-06-27T23:23:23.508Z,53.89
2023-06-27T23:25:51.499Z,53.87
2023-06-27T23:28:19.899Z,53.86
2023-06-27T23:30:53.441Z,53.86
2023-06-27T23:33:25.257Z,54.06
2023-06-27T23:35:53.439Z,54.90
2023-06-27T23:38:21.594Z,54.76
2023-06-27T23:40:49.705Z,54.19
2023-06-27T23:43:20.381Z,53.41
2023-06-27T23:45:48.454Z,52.48
2023-06-27T23:48:16.477Z,53.18
2023-06-27T23:50:44.740Z,53.11
2023-06-27T23:53:13.025Z,53.00
2023-06-27T23:55:41.013Z,53.77
2023-06-27T23:58:09.036Z,54.48
